createdAt,value
2023-01-29T00:00:21.758Z,102721.84
2023-01-29T00:01:30.196Z,102724.56
2023-01-29T00:02:22.093Z,102722.03
2023-01-29T00:03:13.825Z,102716.75
2023-01-29T00:04:05.683Z,102727.66
2023-01-29T00:04:59.152Z,102717.66
2023-01-29T00:05:51.018Z,102712.41
2023-01-29T00:06:43.872Z,102716.97
2023-01-29T00:07:35.514Z,102716.44
2023-01-29T00:08:27.567Z,102724.06
2023-01-29T00:09:19.293Z,102717.00
2023-01-29T00:10:11.640Z,102717.00
2023-01-29T00:11:06.169Z,102713.53
2023-01-29T00:11:58.086Z,102720.66
2023-01-29T00:13:09.558Z,102715.38
2023-01-29T00:14:02.188Z,102716.84
2023-01-29T00:14:55.024Z,102718.66
2023-01-29T00:15:57.764Z,102714.66
2023-01-29T00:16:49.283Z,102719.00
2023-01-29T00:17:41.083Z,102715.94
2023-01-29T00:18:32.563Z,102718.50
2023-01-29T00:19:24.429Z,102712.50
2023-01-29T00:20:16.384Z,102709.94
2023-01-29T00:21:16.833Z,102711.03
2023-01-29T00:22:08.268Z,102710.13
2023-01-29T00:23:00.170Z,102707.59
2023-01-29T00:24:00.541Z,102701.59
2023-01-29T00:24:52.254Z,102703.59
2023-01-29T00:25:44.071Z,102701.94
2023-01-29T00:26:35.626Z,102695.97
2023-01-29T00:27:27.319Z,102700.34
2023-01-29T00:28:19.010Z,102697.78
2023-01-29T00:29:10.634Z,102697.59
2023-01-29T00:30:12.094Z,102694.72
2023-01-29T00:31:11.417Z,102703.25
2023-01-29T00:32:03.794Z,102696.31
2023-01-29T00:32:55.373Z,102699.25
2023-01-29T00:33:48.627Z,102703.59
2023-01-29T00:34:40.254Z,102705.41
2023-01-29T00:35:32.462Z,102707.03
2023-01-29T00:36:26.052Z,102699.41
2023-01-29T00:37:18.571Z,102704.50
2023-01-29T00:38:10.126Z,102697.78
2023-01-29T00:39:10.346Z,102700.72
2023-01-29T00:40:01.774Z,102689.44
2023-01-29T00:41:12.022Z,102691.97
2023-01-29T00:42:22.275Z,102692.16
2023-01-29T00:43:32.271Z,102695.78
2023-01-29T00:44:42.950Z,102681.28
2023-01-29T00:45:36.857Z,102682.00
2023-01-29T00:46:28.394Z,102677.66
2023-01-29T00:47:33.208Z,102674.03
2023-01-29T00:48:24.870Z,102680.00
2023-01-29T00:49:16.576Z,102681.66
2023-01-29T00:50:11.786Z,102675.50
2023-01-29T00:51:04.001Z,102676.22
2023-01-29T00:52:14.175Z,102671.31
2023-01-29T00:53:05.869Z,102674.78
2023-01-29T00:53:58.476Z,102674.94
2023-01-29T00:54:50.921Z,102672.22
2023-01-29T00:56:02.299Z,102676.22
2023-01-29T00:56:53.918Z,102675.16
2023-01-29T00:57:45.504Z,102680.22
2023-01-29T00:58:36.914Z,102678.41
2023-01-29T00:59:28.538Z,102685.13
2023-01-29T01:00:20.555Z,102681.69
2023-01-29T01:01:12.101Z,102678.97
2023-01-29T01:02:22.063Z,102680.97
2023-01-29T01:03:15.026Z,102676.41
2023-01-29T01:04:06.985Z,102677.16
2023-01-29T01:04:58.615Z,102674.44
2023-01-29T01:05:50.261Z,102679.53
2023-01-29T01:06:42.917Z,102680.59
2023-01-29T01:07:34.341Z,102676.97
2023-01-29T01:08:44.300Z,102685.47
2023-01-29T01:09:55.275Z,102678.78
2023-01-29T01:10:46.766Z,102678.56
2023-01-29T01:11:38.227Z,102677.50
2023-01-29T01:12:30.348Z,102677.69
2023-01-29T01:13:21.763Z,102679.31
2023-01-29T01:14:13.482Z,102670.59
2023-01-29T01:15:07.572Z,102675.53
2023-01-29T01:16:00.688Z,102671.91
2023-01-29T01:16:52.306Z,102680.97
2023-01-29T01:17:43.800Z,102678.25
2023-01-29T01:18:35.273Z,102676.78
2023-01-29T01:19:26.918Z,102679.53
2023-01-29T01:20:18.949Z,102680.41
2023-01-29T01:21:10.540Z,102682.06
2023-01-29T01:22:01.989Z,102687.31
2023-01-29T01:22:54.477Z,102681.13
2023-01-29T01:23:46.105Z,102679.88
2023-01-29T01:24:38.502Z,102677.34
2023-01-29T01:25:30.123Z,102676.25
2023-01-29T01:26:21.920Z,102680.41
2023-01-29T01:27:14.182Z,102670.81
2023-01-29T01:28:06.313Z,102676.44
2023-01-29T01:28:57.942Z,102674.97
2023-01-29T01:29:49.407Z,102673.38
2023-01-29T01:30:41.370Z,102676.41
2023-01-29T01:31:32.967Z,102668.06
2023-01-29T01:32:25.947Z,102676.25
2023-01-29T01:33:17.815Z,102680.59
2023-01-29T01:34:10.281Z,102680.25
2023-01-29T01:35:01.734Z,102681.16
2023-01-29T01:35:53.234Z,102687.31
2023-01-29T01:36:46.421Z,102694.03
2023-01-29T01:37:38.682Z,102690.03
2023-01-29T01:38:30.884Z,102682.41
2023-01-29T01:39:23.789Z,102687.31
2023-01-29T01:40:19.452Z,102697.84
2023-01-29T01:41:13.607Z,102689.72
2023-01-29T01:42:11.727Z,102694.41
2023-01-29T01:43:03.494Z,102694.78
2023-01-29T01:44:01.696Z,102692.81
2023-01-29T01:44:58.220Z,102690.63
2023-01-29T01:45:50.042Z,102696.06
2023-01-29T01:46:42.624Z,102688.09
2023-01-29T01:47:43.104Z,102694.63
2023-01-29T01:48:34.968Z,102683.53
2023-01-29T01:49:26.708Z,102694.63
2023-01-29T01:50:31.749Z,102688.25
2023-01-29T01:51:28.770Z,102682.81
2023-01-29T01:52:22.019Z,102683.41
2023-01-29T01:53:30.482Z,102681.22
2023-01-29T01:54:31.874Z,102682.47
2023-01-29T01:55:28.259Z,102679.78
2023-01-29T01:56:28.381Z,102683.94
2023-01-29T01:57:26.252Z,102679.59
2023-01-29T01:58:33.249Z,102670.88
2023-01-29T01:59:24.790Z,102673.63
2023-01-29T02:00:20.584Z,102670.16
2023-01-29T02:01:12.921Z,102665.09
2023-01-29T02:02:25.841Z,102665.81
2023-01-29T02:03:40.004Z,102664.91
2023-01-29T02:04:50.232Z,102658.91
2023-01-29T02:06:01.031Z,102664.91
2023-01-29T02:07:14.131Z,102655.66
2023-01-29T02:08:24.804Z,102660.38
2023-01-29T02:09:38.692Z,102650.03
2023-01-29T02:10:39.075Z,102649.88
2023-01-29T02:11:30.644Z,102653.13
2023-01-29T02:12:23.570Z,102648.78
2023-01-29T02:13:17.843Z,102654.94
2023-01-29T02:14:09.905Z,102660.03
2023-01-29T02:15:02.431Z,102663.28
2023-01-29T02:15:53.963Z,102659.09
2023-01-29T02:16:45.829Z,102654.03
2023-01-29T02:17:38.137Z,102658.22
2023-01-29T02:18:30.522Z,102662.38
2023-01-29T02:19:52.073Z,102657.13
2023-01-29T02:21:09.641Z,102660.75
2023-01-29T02:22:25.752Z,102671.78
2023-01-29T02:23:40.073Z,102669.97
2023-01-29T02:24:34.859Z,102668.38
2023-01-29T02:25:45.217Z,102673.78
2023-01-29T02:27:14.016Z,102673.59
2023-01-29T02:28:33.012Z,102673.59
2023-01-29T02:29:42.669Z,102671.78
2023-01-29T02:30:49.550Z,102668.53
2023-01-29T02:31:50.337Z,102681.22
2023-01-29T02:32:58.672Z,102672.72
2023-01-29T02:34:15.136Z,102675.41
2023-01-29T02:35:31.865Z,102673.25
2023-01-29T02:36:47.751Z,102669.81
2023-01-29T02:37:54.355Z,102679.03
2023-01-29T02:39:01.257Z,102679.03
2023-01-29T02:40:13.541Z,102677.41
2023-01-29T02:41:12.169Z,102684.84
2023-01-29T02:42:31.271Z,102681.41
2023-01-29T02:43:38.704Z,102680.69
2023-01-29T02:44:48.592Z,102675.59
2023-01-29T02:45:55.453Z,102679.41
2023-01-29T02:47:25.551Z,102678.50
2023-01-29T02:48:22.351Z,102681.75
2023-01-29T02:49:16.538Z,102686.66
2023-01-29T02:50:22.417Z,102686.47
2023-01-29T02:51:22.084Z,102693.38
2023-01-29T02:52:21.705Z,102693.38
2023-01-29T02:53:33.094Z,102694.81
2023-01-29T02:54:52.851Z,102690.84
2023-01-29T02:55:53.708Z,102692.13
2023-01-29T02:56:58.912Z,102688.84
2023-01-29T02:58:00.448Z,102697.69
2023-01-29T02:59:00.806Z,102695.53
2023-01-29T02:59:58.735Z,102691.72
2023-01-29T03:00:55.176Z,102698.09
2023-01-29T03:02:16.520Z,102702.09
2023-01-29T03:03:28.507Z,102698.81
2023-01-29T03:04:28.644Z,102701.00
2023-01-29T03:05:32.588Z,102703.34
2023-01-29T03:06:37.616Z,102708.78
2023-01-29T03:07:44.895Z,102714.44
2023-01-29T03:08:54.091Z,102714.22
2023-01-29T03:09:51.858Z,102723.44
2023-01-29T03:10:58.287Z,102716.41
2023-01-29T03:11:55.939Z,102713.16
2023-01-29T03:12:55.581Z,102720.56
2023-01-29T03:13:51.147Z,102724.75
2023-01-29T03:15:01.500Z,102723.81
2023-01-29T03:16:02.815Z,102724.91
2023-01-29T03:17:03.682Z,102720.03
2023-01-29T03:18:02.285Z,102726.72
2023-01-29T03:19:01.916Z,102719.50
2023-01-29T03:19:54.318Z,102717.84
2023-01-29T03:20:53.762Z,102707.72
2023-01-29T03:22:04.506Z,102706.09
2023-01-29T03:23:02.675Z,102703.00
2023-01-29T03:24:16.229Z,102703.56
2023-01-29T03:25:30.848Z,102701.75
2023-01-29T03:26:41.868Z,102700.47
2023-01-29T03:28:03.593Z,102692.13
2023-01-29T03:29:23.899Z,102697.19
2023-01-29T03:30:37.936Z,102689.59
2023-01-29T03:32:08.305Z,102692.28
2023-01-29T03:33:08.533Z,102697.19
2023-01-29T03:34:18.295Z,102695.38
2023-01-29T03:35:14.342Z,102690.84
2023-01-29T03:36:15.230Z,102683.22
2023-01-29T03:37:19.383Z,102683.06
2023-01-29T03:38:11.904Z,102679.44
2023-01-29T03:39:11.605Z,102678.72
2023-01-29T03:40:07.000Z,102681.25
2023-01-29T03:41:10.278Z,102681.25
2023-01-29T03:42:19.188Z,102681.63
2023-01-29T03:43:34.562Z,102678.88
2023-01-29T03:44:44.272Z,102679.97
2023-01-29T03:46:08.294Z,102682.53
2023-01-29T03:47:24.734Z,102680.16
2023-01-29T03:48:37.318Z,102681.97
2023-01-29T03:49:57.625Z,102680.88
2023-01-29T03:51:04.900Z,102680.53
2023-01-29T03:52:21.897Z,102681.97
2023-01-29T03:53:30.534Z,102683.97
2023-01-29T03:54:43.431Z,102682.50
2023-01-29T03:55:58.239Z,102688.50
2023-01-29T03:57:03.421Z,102691.41
2023-01-29T03:58:25.183Z,102697.19
2023-01-29T03:59:33.028Z,102695.03
2023-01-29T04:00:57.697Z,102698.28
2023-01-29T04:02:01.604Z,102701.56
2023-01-29T04:03:24.221Z,102702.81
2023-01-29T04:04:24.824Z,102706.97
2023-01-29T04:05:22.641Z,102706.63
2023-01-29T04:06:39.094Z,102703.53
2023-01-29T04:07:36.565Z,102696.28
2023-01-29T04:08:34.009Z,102696.13
2023-01-29T04:09:59.129Z,102692.50
2023-01-29T04:11:04.823Z,102693.59
2023-01-29T04:12:05.796Z,102695.19
2023-01-29T04:13:06.608Z,102692.13
2023-01-29T04:14:00.051Z,102686.50
2023-01-29T04:14:55.647Z,102689.03
2023-01-29T04:15:54.347Z,102685.44
2023-01-29T04:17:01.277Z,102683.97
2023-01-29T04:18:02.815Z,102683.06
2023-01-29T04:19:21.142Z,102686.19
2023-01-29T04:20:15.001Z,102682.91
2023-01-29T04:21:07.480Z,102682.03
2023-01-29T04:22:10.705Z,102677.13
2023-01-29T04:23:02.547Z,102666.41
2023-01-29T04:23:54.519Z,102671.47
2023-01-29T04:24:49.574Z,102679.25
2023-01-29T04:25:52.573Z,102679.25
2023-01-29T04:27:01.026Z,102672.22
2023-01-29T04:28:02.257Z,102675.09
2023-01-29T04:29:33.216Z,102665.50
2023-01-29T04:30:56.870Z,102666.56
2023-01-29T04:32:10.083Z,102649.19
2023-01-29T04:33:23.822Z,102651.72
2023-01-29T04:34:31.511Z,102652.44
2023-01-29T04:35:50.650Z,102648.09
2023-01-29T04:36:59.263Z,102639.97
2023-01-29T04:38:10.270Z,102651.19
2023-01-29T04:39:04.978Z,102646.28
2023-01-29T04:40:26.670Z,102643.56
2023-01-29T04:41:51.821Z,102643.75
2023-01-29T04:43:07.261Z,102645.38
2023-01-29T04:44:08.536Z,102647.19
2023-01-29T04:45:24.612Z,102651.34
2023-01-29T04:46:31.650Z,102658.06
2023-01-29T04:47:32.314Z,102646.28
2023-01-29T04:48:59.956Z,102653.88
2023-01-29T04:50:16.112Z,102654.81
2023-01-29T04:51:11.245Z,102655.16
2023-01-29T04:52:31.882Z,102655.16
2023-01-29T04:53:52.438Z,102658.22
2023-01-29T04:55:03.247Z,102651.34
2023-01-29T04:56:06.179Z,102656.41
2023-01-29T04:57:20.053Z,102647.72
2023-01-29T04:58:32.762Z,102655.31
2023-01-29T04:59:36.240Z,102645.19
2023-01-29T05:00:36.213Z,102650.09
2023-01-29T05:01:33.558Z,102644.09
2023-01-29T05:02:28.414Z,102641.03
2023-01-29T05:03:25.864Z,102641.03
2023-01-29T05:04:21.749Z,102635.22
2023-01-29T05:05:19.831Z,102629.22
2023-01-29T05:06:13.105Z,102626.53
2023-01-29T05:07:10.048Z,102633.06
2023-01-29T05:08:04.851Z,102629.59
2023-01-29T05:08:59.376Z,102625.09
2023-01-29T05:09:52.436Z,102623.09
2023-01-29T05:10:48.539Z,102626.34
2023-01-29T05:11:42.363Z,102632.16
2023-01-29T05:12:36.918Z,102622.00
2023-01-29T05:13:34.382Z,102618.03
2023-01-29T05:14:30.465Z,102620.56
2023-01-29T05:15:30.488Z,102622.38
2023-01-29T05:16:27.762Z,102620.41
2023-01-29T05:17:20.587Z,102619.47
2023-01-29T05:18:12.144Z,102614.41
2023-01-29T05:19:03.749Z,102624.00
2023-01-29T05:19:56.968Z,102624.75
2023-01-29T05:20:50.548Z,102629.09
2023-01-29T05:21:45.929Z,102634.31
2023-01-29T05:22:41.693Z,102637.94
2023-01-29T05:23:35.015Z,102636.50
2023-01-29T05:24:26.997Z,102639.22
2023-01-29T05:25:26.209Z,102632.50
2023-01-29T05:26:36.589Z,102632.69
2023-01-29T05:27:53.509Z,102638.50
2023-01-29T05:28:45.323Z,102634.88
2023-01-29T05:29:37.338Z,102627.44
2023-01-29T05:30:28.878Z,102628.34
2023-01-29T05:31:20.485Z,102618.94
2023-01-29T05:32:12.302Z,102620.72
2023-01-29T05:33:05.324Z,102619.09
2023-01-29T05:33:56.892Z,102620.91
2023-01-29T05:34:48.351Z,102620.16
2023-01-29T05:35:39.973Z,102613.28
2023-01-29T05:36:31.502Z,102618.19
2023-01-29T05:37:22.946Z,102613.13
2023-01-29T05:38:15.308Z,102614.75
2023-01-29T05:39:06.950Z,102620.72
2023-01-29T05:39:58.467Z,102612.03
2023-01-29T05:40:50.107Z,102615.47
2023-01-29T05:41:41.914Z,102614.00
2023-01-29T05:42:33.517Z,102618.34
2023-01-29T05:43:25.210Z,102618.56
2023-01-29T05:44:16.828Z,102622.91
2023-01-29T05:45:09.208Z,102618.72
2023-01-29T05:46:01.692Z,102614.03
2023-01-29T05:46:53.346Z,102608.97
2023-01-29T05:47:46.242Z,102614.38
2023-01-29T05:48:37.762Z,102613.09
2023-01-29T05:49:29.457Z,102605.69
2023-01-29T05:50:20.891Z,102610.94
2023-01-29T05:51:12.334Z,102617.09
2023-01-29T05:52:04.186Z,102612.94
2023-01-29T05:52:57.972Z,102613.81
2023-01-29T05:53:49.410Z,102618.16
2023-01-29T05:54:40.864Z,102614.00
2023-01-29T05:55:32.296Z,102618.91
2023-01-29T05:56:25.235Z,102615.28
2023-01-29T05:57:16.642Z,102609.47
2023-01-29T05:58:08.113Z,102617.28
2023-01-29T05:58:59.537Z,102614.00
2023-01-29T05:59:50.948Z,102614.91
2023-01-29T06:00:42.460Z,102620.16
2023-01-29T06:01:34.247Z,102613.44
2023-01-29T06:02:25.789Z,102611.09
2023-01-29T06:03:17.489Z,102614.53
2023-01-29T06:04:09.190Z,102620.53
2023-01-29T06:05:00.969Z,102621.25
2023-01-29T06:05:52.621Z,102630.84
2023-01-29T06:06:44.304Z,102631.75
2023-01-29T06:07:45.402Z,102631.03
2023-01-29T06:08:37.374Z,102627.91
2023-01-29T06:09:29.466Z,102626.31
2023-01-29T06:10:21.313Z,102625.38
2023-01-29T06:11:14.436Z,102630.66
2023-01-29T06:12:07.995Z,102627.03
2023-01-29T06:12:59.766Z,102629.72
2023-01-29T06:13:51.663Z,102629.00
2023-01-29T06:14:43.335Z,102626.47
2023-01-29T06:15:34.888Z,102623.19
2023-01-29T06:16:26.680Z,102623.94
2023-01-29T06:17:18.129Z,102624.84
2023-01-29T06:18:09.577Z,102625.56
2023-01-29T06:19:01.249Z,102628.66
2023-01-29T06:20:10.093Z,102626.84
2023-01-29T06:21:02.833Z,102630.66
2023-01-29T06:21:54.436Z,102632.25
2023-01-29T06:22:46.440Z,102631.38
2023-01-29T06:23:38.706Z,102627.03
2023-01-29T06:24:30.244Z,102628.84
2023-01-29T06:25:21.744Z,102619.78
2023-01-29T06:26:15.456Z,102617.22
2023-01-29T06:27:06.939Z,102622.13
2023-01-29T06:27:59.629Z,102619.78
2023-01-29T06:28:58.479Z,102620.50
2023-01-29T06:29:50.196Z,102618.69
2023-01-29T06:30:44.267Z,102621.75
2023-01-29T06:31:39.741Z,102618.88
2023-01-29T06:32:31.842Z,102627.22
2023-01-29T06:33:23.519Z,102626.31
2023-01-29T06:34:15.308Z,102635.56
2023-01-29T06:35:08.767Z,102637.38
2023-01-29T06:36:02.228Z,102639.16
2023-01-29T06:36:53.751Z,102639.00
2023-01-29T06:37:45.206Z,102644.25
2023-01-29T06:38:36.868Z,102639.16
2023-01-29T06:39:28.514Z,102642.97
2023-01-29T06:40:20.321Z,102645.88
2023-01-29T06:41:16.116Z,102653.66
2023-01-29T06:42:08.502Z,102658.03
2023-01-29T06:43:03.196Z,102659.28
2023-01-29T06:43:54.598Z,102657.09
2023-01-29T06:44:46.013Z,102655.09
2023-01-29T06:45:37.801Z,102664.88
2023-01-29T06:46:29.302Z,102663.94
2023-01-29T06:47:21.127Z,102671.00
2023-01-29T06:48:13.545Z,102672.44
2023-01-29T06:49:04.958Z,102678.06
2023-01-29T06:49:56.368Z,102679.16
2023-01-29T06:50:49.442Z,102683.66
2023-01-29T06:51:40.854Z,102688.19
2023-01-29T06:52:32.408Z,102683.28
2023-01-29T06:53:24.876Z,102686.91
2023-01-29T06:54:16.324Z,102679.66
2023-01-29T06:55:08.402Z,102681.63
2023-01-29T06:56:00.150Z,102688.16
2023-01-29T06:56:52.118Z,102680.94
2023-01-29T06:57:43.591Z,102683.28
2023-01-29T06:58:39.023Z,102679.66
2023-01-29T06:59:30.852Z,102678.38
2023-01-29T07:00:22.454Z,102677.13
2023-01-29T07:01:29.267Z,102676.03
2023-01-29T07:02:26.056Z,102678.94
2023-01-29T07:03:17.647Z,102678.78
2023-01-29T07:04:09.293Z,102679.84
2023-01-29T07:05:00.728Z,102677.31
2023-01-29T07:05:53.028Z,102668.97
2023-01-29T07:06:44.699Z,102669.13
2023-01-29T07:07:36.878Z,102671.50
2023-01-29T07:08:28.491Z,102663.88
2023-01-29T07:09:20.078Z,102666.41
2023-01-29T07:10:11.604Z,102661.34
2023-01-29T07:11:03.355Z,102664.41
2023-01-29T07:11:54.912Z,102667.16
2023-01-29T07:12:46.698Z,102663.69
2023-01-29T07:13:38.183Z,102657.88
2023-01-29T07:14:29.782Z,102670.56
2023-01-29T07:15:41.669Z,102668.78
2023-01-29T07:16:34.171Z,102668.38
2023-01-29T07:17:25.729Z,102673.81
2023-01-29T07:18:17.252Z,102674.31
2023-01-29T07:19:08.817Z,102668.69
2023-01-29T07:20:00.206Z,102673.41
2023-01-29T07:20:51.928Z,102667.94
2023-01-29T07:21:43.553Z,102667.53
2023-01-29T07:22:34.992Z,102668.09
2023-01-29T07:23:26.908Z,102664.97
2023-01-29T07:24:19.362Z,102672.19
2023-01-29T07:25:10.970Z,102670.72
2023-01-29T07:26:04.391Z,102672.88
2023-01-29T07:26:56.028Z,102670.72
2023-01-29T07:27:47.614Z,102675.56
2023-01-29T07:28:40.228Z,102673.22
2023-01-29T07:29:31.728Z,102672.97
2023-01-29T07:30:23.360Z,102677.88
2023-01-29T07:31:15.414Z,102666.56
2023-01-29T07:32:07.881Z,102669.63
2023-01-29T07:33:02.539Z,102671.59
2023-01-29T07:33:54.037Z,102669.56
2023-01-29T07:34:45.529Z,102672.63
2023-01-29T07:35:39.667Z,102669.13
2023-01-29T07:36:31.332Z,102664.72
2023-01-29T07:37:22.806Z,102676.47
2023-01-29T07:38:15.305Z,102675.00
2023-01-29T07:39:06.914Z,102669.19
2023-01-29T07:39:58.836Z,102666.78
2023-01-29T07:40:52.610Z,102669.50
2023-01-29T07:41:44.091Z,102673.88
2023-01-29T07:42:44.145Z,102661.66
2023-01-29T07:43:35.844Z,102662.88
2023-01-29T07:44:27.317Z,102655.44
2023-01-29T07:45:18.955Z,102658.13
2023-01-29T07:46:10.731Z,102661.00
2023-01-29T07:47:02.443Z,102662.75
2023-01-29T07:47:55.556Z,102669.25
2023-01-29T07:48:47.057Z,102673.03
2023-01-29T07:49:40.618Z,102669.94
2023-01-29T07:50:34.590Z,102671.16
2023-01-29T07:51:26.265Z,102670.59
2023-01-29T07:52:20.775Z,102676.75
2023-01-29T07:53:15.125Z,102670.19
2023-01-29T07:54:06.661Z,102668.69
2023-01-29T07:54:58.251Z,102671.72
2023-01-29T07:55:50.058Z,102674.63
2023-01-29T07:56:41.482Z,102673.31
2023-01-29T07:57:32.912Z,102659.69
2023-01-29T07:58:24.472Z,102657.47
2023-01-29T07:59:16.144Z,102654.91
2023-01-29T08:00:09.006Z,102648.16
2023-01-29T08:01:07.845Z,102647.75
2023-01-29T08:01:59.385Z,102651.97
2023-01-29T08:02:51.099Z,102648.34
2023-01-29T08:03:42.708Z,102646.69
2023-01-29T08:04:35.701Z,102642.66
2023-01-29T08:05:27.190Z,102642.09
2023-01-29T08:06:19.214Z,102641.03
2023-01-29T08:07:10.615Z,102647.94
2023-01-29T08:08:06.929Z,102647.19
2023-01-29T08:08:59.685Z,102651.34
2023-01-29T08:09:51.161Z,102650.63
2023-01-29T08:10:42.733Z,102650.63
2023-01-29T08:11:34.569Z,102653.91
2023-01-29T08:12:26.063Z,102652.09
2023-01-29T08:13:17.480Z,102655.16
2023-01-29T08:14:09.325Z,102649.31
2023-01-29T08:15:01.126Z,102654.00
2023-01-29T08:15:52.555Z,102657.78
2023-01-29T08:16:44.263Z,102660.66
2023-01-29T08:17:36.885Z,102658.25
2023-01-29T08:18:32.778Z,102656.63
2023-01-29T08:19:24.292Z,102655.28
2023-01-29T08:20:16.318Z,102648.88
2023-01-29T08:21:08.161Z,102648.16
2023-01-29T08:21:59.574Z,102647.22
2023-01-29T08:23:01.928Z,102648.38
2023-01-29T08:23:53.820Z,102647.81
2023-01-29T08:24:53.765Z,102652.75
2023-01-29T08:25:51.553Z,102652.75
2023-01-29T08:26:43.181Z,102656.78
2023-01-29T08:27:34.798Z,102659.19
2023-01-29T08:28:26.367Z,102650.19
2023-01-29T08:29:17.960Z,102659.66
2023-01-29T08:30:10.864Z,102657.69
2023-01-29T08:31:02.340Z,102655.28
2023-01-29T08:31:56.159Z,102654.41
2023-01-29T08:32:47.619Z,102648.72
2023-01-29T08:33:39.572Z,102651.44
2023-01-29T08:34:31.175Z,102657.44
2023-01-29T08:35:23.129Z,102651.75
2023-01-29T08:36:15.880Z,102652.66
2023-01-29T08:37:08.362Z,102655.06
2023-01-29T08:38:03.287Z,102660.28
2023-01-29T08:38:54.754Z,102652.81
2023-01-29T08:39:46.177Z,102649.53
2023-01-29T08:40:37.826Z,102650.41
2023-01-29T08:41:30.241Z,102650.59
2023-01-29T08:42:21.678Z,102643.88
2023-01-29T08:43:14.696Z,102648.22
2023-01-29T08:44:06.451Z,102648.97
2023-01-29T08:44:58.059Z,102654.22
2023-01-29T08:45:49.593Z,102650.78
2023-01-29T08:46:41.149Z,102645.81
2023-01-29T08:47:32.661Z,102646.06
2023-01-29T08:48:25.124Z,102647.16
2023-01-29T08:49:16.540Z,102642.38
2023-01-29T08:50:08.711Z,102637.44
2023-01-29T08:51:02.459Z,102628.16
2023-01-29T08:51:56.881Z,102637.94
2023-01-29T08:52:48.506Z,102639.13
2023-01-29T08:53:40.138Z,102646.97
2023-01-29T08:54:31.614Z,102641.13
2023-01-29T08:55:23.205Z,102642.19
2023-01-29T08:56:16.298Z,102644.00
2023-01-29T08:57:07.758Z,102642.00
2023-01-29T08:57:59.202Z,102639.31
2023-01-29T08:58:50.678Z,102633.78
2023-01-29T08:59:42.093Z,102632.44
2023-01-29T09:00:34.926Z,102639.84
2023-01-29T09:01:26.561Z,102639.41
2023-01-29T09:02:18.359Z,102642.28
2023-01-29T09:03:09.987Z,102642.28
2023-01-29T09:04:01.841Z,102640.47
2023-01-29T09:04:53.363Z,102640.34
2023-01-29T09:05:46.624Z,102648.88
2023-01-29T09:06:38.036Z,102643.53
2023-01-29T09:07:29.682Z,102643.84
2023-01-29T09:08:21.239Z,102641.72
2023-01-29T09:09:12.876Z,102644.72
2023-01-29T09:10:04.696Z,102642.19
2023-01-29T09:10:59.674Z,102637.81
2023-01-29T09:11:51.165Z,102640.53
2023-01-29T09:12:43.236Z,102641.94
2023-01-29T09:13:34.984Z,102639.69
2023-01-29T09:14:27.591Z,102640.59
2023-01-29T09:15:19.500Z,102643.47
2023-01-29T09:16:11.291Z,102632.53
2023-01-29T09:17:02.753Z,102645.59
2023-01-29T09:17:54.589Z,102646.78
2023-01-29T09:18:46.439Z,102634.97
2023-01-29T09:19:38.081Z,102643.66
2023-01-29T09:20:29.557Z,102640.06
2023-01-29T09:21:21.119Z,102634.09
2023-01-29T09:22:12.811Z,102631.53
2023-01-29T09:23:10.308Z,102630.78
2023-01-29T09:24:02.000Z,102630.78
2023-01-29T09:24:54.526Z,102629.47
2023-01-29T09:25:46.653Z,102628.72
2023-01-29T09:26:40.256Z,102624.81
2023-01-29T09:27:31.806Z,102626.78
2023-01-29T09:28:23.621Z,102624.69
2023-01-29T09:29:15.213Z,102620.94
2023-01-29T09:30:07.334Z,102623.84
2023-01-29T09:31:02.447Z,102615.56
2023-01-29T09:31:54.253Z,102618.44
2023-01-29T09:32:54.415Z,102616.94
2023-01-29T09:33:46.415Z,102612.28
2023-01-29T09:34:38.137Z,102612.31
2023-01-29T09:35:29.691Z,102608.25
2023-01-29T09:36:21.163Z,102604.22
2023-01-29T09:37:12.803Z,102611.69
2023-01-29T09:38:04.341Z,102613.69
2023-01-29T09:38:55.858Z,102612.31
2023-01-29T09:39:47.358Z,102615.03
2023-01-29T09:41:02.967Z,102612.22
2023-01-29T09:42:12.501Z,102610.25
2023-01-29T09:43:13.109Z,102614.44
2023-01-29T09:44:19.969Z,102609.22
2023-01-29T09:45:24.657Z,102607.84
2023-01-29T09:46:28.430Z,102604.25
2023-01-29T09:47:23.980Z,102602.31
2023-01-29T09:48:16.480Z,102609.38
2023-01-29T09:49:23.329Z,102609.09
2023-01-29T09:50:22.037Z,102604.88
2023-01-29T09:51:33.519Z,102608.91
2023-01-29T09:52:34.659Z,102603.06
2023-01-29T09:53:32.524Z,102598.72
2023-01-29T09:54:37.275Z,102594.50
2023-01-29T09:55:35.213Z,102599.44
2023-01-29T09:56:29.192Z,102600.06
2023-01-29T09:57:39.548Z,102593.31
2023-01-29T09:58:38.590Z,102592.84
2023-01-29T09:59:32.272Z,102596.91
2023-01-29T10:00:33.296Z,102580.22
2023-01-29T10:01:37.058Z,102578.56
2023-01-29T10:02:54.961Z,102584.13
2023-01-29T10:04:45.199Z,102577.22
2023-01-29T10:06:11.423Z,102574.63
2023-01-29T10:07:27.714Z,102572.84
2023-01-29T10:08:40.494Z,102573.13
2023-01-29T10:09:41.444Z,102569.22
2023-01-29T10:10:35.857Z,102577.66
2023-01-29T10:11:33.195Z,102577.50
2023-01-29T10:12:43.197Z,102570.69
2023-01-29T10:14:04.270Z,102572.19
2023-01-29T10:15:13.909Z,102576.78
2023-01-29T10:16:30.162Z,102569.63
2023-01-29T10:17:34.033Z,102567.03
2023-01-29T10:18:47.834Z,102564.63
2023-01-29T10:19:42.037Z,102570.31
2023-01-29T10:20:52.040Z,102568.22
2023-01-29T10:22:00.686Z,102565.03
2023-01-29T10:23:13.517Z,102569.38
2023-01-29T10:24:33.316Z,102563.97
2023-01-29T10:25:25.894Z,102565.59
2023-01-29T10:26:23.367Z,102573.00
2023-01-29T10:27:17.204Z,102570.72
2023-01-29T10:28:34.088Z,102562.84
2023-01-29T10:29:31.265Z,102562.72
2023-01-29T10:30:41.027Z,102565.41
2023-01-29T10:31:40.058Z,102567.09
2023-01-29T10:32:35.871Z,102564.81
2023-01-29T10:33:49.581Z,102565.09
2023-01-29T10:35:00.236Z,102563.56
2023-01-29T10:36:00.463Z,102552.22
2023-01-29T10:36:54.971Z,102555.72
2023-01-29T10:37:46.516Z,102562.72
2023-01-29T10:38:46.947Z,102558.84
2023-01-29T10:39:38.464Z,102563.78
2023-01-29T10:40:46.882Z,102558.22
2023-01-29T10:41:41.550Z,102565.00
2023-01-29T10:42:57.144Z,102568.03
2023-01-29T10:43:55.614Z,102564.44
2023-01-29T10:45:18.470Z,102563.44
2023-01-29T10:46:38.901Z,102563.13
2023-01-29T10:47:42.428Z,102566.44
2023-01-29T10:48:48.789Z,102570.38
2023-01-29T10:49:42.403Z,102568.59
2023-01-29T10:50:57.588Z,102564.06
2023-01-29T10:52:13.475Z,102565.13
2023-01-29T10:53:22.876Z,102564.81
2023-01-29T10:54:38.233Z,102556.84
2023-01-29T10:55:56.857Z,102552.31
2023-01-29T10:57:06.761Z,102547.84
2023-01-29T10:58:36.793Z,102556.22
2023-01-29T10:59:53.260Z,102548.53
2023-01-29T11:00:45.474Z,102545.06
2023-01-29T11:01:37.378Z,102542.47
2023-01-29T11:02:28.897Z,102540.34